Time;durP1;ratioP1;P1;durP2;ratioP2;P2;SDS_P1;SDS_P2;PMS_P1;PMS_P2;Temp;Humidity;BMP_temperature;BMP_pressure;BME280_temperature;BME280_humidity;BME280_pressure;Samples;Min_cycle;Max_cycle;Signal;HPM_P1;HPM_P2
2023/06/11 00:00:14;;;;;;;5.82;2.60;;;;;;;18.21;74.69;100636.97;5030549;28;20415;-87
2023/06/11 00:02:41;;;;;;;4.18;2.15;;;;;;;18.18;75.13;100623.28;5046979;28;20021;-88
2023/06/11 00:05:09;;;;;;;4.13;2.53;;;;;;;18.13;74.86;100636.75;5030827;28;20405;-87
2023/06/11 00:07:34;;;;;;;4.15;2.30;;;;;;;18.05;75.59;100636.53;5030860;28;20036;-88
2023/06/11 00:10:01;;;;;;;4.30;2.55;;;;;;;17.93;75.33;100640.97;5014220;28;20025;-87
2023/06/11 00:12:26;;;;;;;3.70;2.50;;;;;;;17.86;75.29;100628.47;5030229;28;20053;-87
2023/06/11 00:14:52;;;;;;;4.72;2.50;;;;;;;17.76;76.04;100620.53;5030091;28;20037;-87
2023/06/11 00:17:17;;;;;;;6.10;2.60;;;;;;;17.72;76.41;100619.94;5030379;28;20037;-86
2023/06/11 00:19:43;;;;;;;5.28;2.67;;;;;;;17.64;76.62;100618.84;5030558;28;20483;-87
2023/06/11 00:22:08;;;;;;;3.53;2.17;;;;;;;17.62;76.54;100605.06;5030517;28;20160;-87
2023/06/11 00:24:34;;;;;;;3.70;2.72;;;;;;;17.62;77.29;100613.75;5046927;28;20025;-86
2023/06/11 00:27:01;;;;;;;3.33;2.28;;;;;;;17.66;76.76;100616.94;5030439;28;20475;-87
2023/06/11 00:29:27;;;;;;;4.57;2.45;;;;;;;17.71;76.77;100614.84;5030244;28;20035;-87
2023/06/11 00:31:53;;;;;;;3.78;2.10;;;;;;;17.58;76.42;100603.63;5046854;28;20105;-86
2023/06/11 00:34:19;;;;;;;3.42;2.50;;;;;;;17.75;76.69;100622.31;5030129;28;20116;-87
2023/06/11 00:36:45;;;;;;;3.88;2.75;;;;;;;17.71;77.11;100622.69;5046799;28;20159;-86
2023/06/11 00:39:11;;;;;;;4.78;3.03;;;;;;;17.77;77.12;100616.94;5030267;28;20033;-87
2023/06/11 00:41:37;;;;;;;5.10;2.58;;;;;;;17.73;76.50;100605.06;5046611;28;20480;-87
2023/06/11 00:44:03;;;;;;;6.07;2.28;;;;;;;17.87;75.75;100630.97;5029816;28;20025;-87
2023/06/11 00:46:31;;;;;;;3.63;2.42;;;;;;;17.86;75.72;100631.94;5030056;28;20039;-88
2023/06/11 00:48:57;;;;;;;3.63;2.58;;;;;;;17.71;76.13;100626.13;5030369;28;20029;-87
2023/06/11 00:51:25;;;;;;;4.15;2.47;;;;;;;17.75;76.20;100626.72;5029721;28;20112;-87
2023/06/11 00:53:51;;;;;;;2.63;2.00;;;;;;;17.76;76.56;100634.44;5030013;28;20021;-86
2023/06/11 00:56:17;;;;;;;5.50;2.90;;;;;;;17.74;76.73;100630.28;5046167;28;20499;-87
2023/06/11 00:58:45;;;;;;;3.45;2.25;;;;;;;17.86;76.67;100624.06;5029823;28;20032;-87
2023/06/11 01:01:10;;;;;;;6.13;2.80;;;;;;;17.84;76.63;100625.16;5029928;28;20025;-86
2023/06/11 01:03:36;;;;;;;4.63;3.00;;;;;;;17.92;76.59;100633.25;5029756;28;20063;-88
2023/06/11 01:06:04;;;;;;;4.13;2.28;;;;;;;17.94;76.40;100637.38;5029688;28;20040;-87
2023/06/11 01:08:35;;;;;;;3.83;2.42;;;;;;;17.86;76.94;100633.72;5013301;28;20049;-87
2023/06/11 01:11:01;;;;;;;4.97;2.88;;;;;;;17.80;76.92;100639.41;5046048;28;20498;-87
2023/06/11 01:13:30;;;;;;;3.00;2.28;;;;;;;17.73;76.14;100612.94;5045955;28;20451;-87
2023/06/11 01:16:07;;;;;;;3.92;2.83;;;;;;;17.83;75.83;100626.13;5029744;28;20479;-87
2023/06/11 01:18:37;;;;;;;3.47;2.47;;;;;;;17.90;76.12;100641.22;5029915;28;20502;-87
2023/06/11 01:21:09;;;;;;;5.03;3.00;;;;;;;17.93;76.57;100648.81;5028939;28;20053;-87
2023/06/11 01:24:12;;;;;;;3.65;2.70;;;;;;;18.02;75.87;100649.88;5012855;28;20091;-88
2023/06/11 01:26:46;;;;;;;4.18;2.65;;;;;;;18.06;75.31;100648.66;5030364;28;20136;-87
2023/06/11 01:29:12;;;;;;;3.70;2.90;;;;;;;17.90;76.08;100635.97;5029820;28;20112;-87
2023/06/11 01:31:40;;;;;;;4.35;2.75;;;;;;;17.86;76.28;100633.72;5029418;28;20040;-87
2023/06/11 01:34:05;;;;;;;8.25;2.30;;;;;;;17.90;76.35;100635.97;5029450;28;20517;-87
2023/06/11 01:36:36;;;;;;;3.30;2.50;;;;;;;17.97;75.95;100639.75;5030365;28;20065;-87
2023/06/11 01:39:02;;;;;;;3.95;2.60;;;;;;;17.92;76.46;100643.72;5029743;28;20049;-86
2023/06/11 01:41:28;;;;;;;3.55;2.75;;;;;;;17.97;76.25;100652.84;5029111;28;20025;-87
2023/06/11 01:43:53;;;;;;;3.35;2.47;;;;;;;18.00;76.68;100647.38;5029052;28;20029;-88
2023/06/11 01:46:19;;;;;;;6.72;3.20;;;;;;;17.98;76.62;100643.19;5028848;28;20499;-87
2023/06/11 01:48:44;;;;;;;4.65;3.00;;;;;;;17.89;76.55;100634.28;5012829;28;20037;-87
2023/06/11 01:51:14;;;;;;;5.20;2.95;;;;;;;17.97;76.76;100652.84;5029236;28;20033;-87
2023/06/11 01:53:42;;;;;;;4.35;2.75;;;;;;;17.97;77.52;100652.84;5045485;28;20053;-86
2023/06/11 01:56:07;;;;;;;4.60;3.13;;;;;;;18.02;76.89;100655.94;5028910;28;20095;-87
2023/06/11 01:58:33;;;;;;;3.85;2.65;;;;;;;17.99;76.86;100656.19;5029219;28;20407;-87
2023/06/11 02:00:59;;;;;;;4.38;3.05;;;;;;;17.97;76.84;100663.31;5029095;28;20025;-86
2023/06/11 02:03:25;;;;;;;4.78;2.83;;;;;;;17.94;76.74;100673.19;5029158;28;20036;-86
2023/06/11 02:05:50;;;;;;;5.68;2.58;;;;;;;17.71;77.13;100656.69;5029092;28;20029;-87
2023/06/11 02:08:16;;;;;;;5.22;2.97;;;;;;;17.74;77.33;100672.16;5029085;28;20025;-87
2023/06/11 02:10:45;;;;;;;4.47;3.13;;;;;;;17.75;77.05;100673.81;5029904;28;20512;-86
2023/06/11 02:13:10;;;;;;;6.90;3.30;;;;;;;17.77;77.09;100672.72;5029137;28;20160;-87
2023/06/11 02:15:36;;;;;;;4.53;3.13;;;;;;;17.83;77.32;100686.31;5029346;28;20025;-87
2023/06/11 02:18:01;;;;;;;5.38;2.65;;;;;;;17.64;77.22;100660.69;5029030;28;20036;-87
2023/06/11 02:20:27;;;;;;;7.18;3.03;;;;;;;17.64;77.01;100672.00;5045591;28;20030;-86
2023/06/11 02:22:52;;;;;;;7.05;2.95;;;;;;;17.77;76.60;100684.97;5028930;28;20033;-86
2023/06/11 02:25:17;;;;;;;4.18;2.47;;;;;;;17.61;76.67;100656.56;5045203;28;20030;-86
2023/06/11 02:27:43;;;;;;;3.70;2.65;;;;;;;17.72;76.59;100680.13;5028950;28;20025;-87
2023/06/11 02:30:09;;;;;;;3.50;2.50;;;;;;;17.64;76.79;100663.31;5029023;28;20026;-87
2023/06/11 02:32:34;;;;;;;4.85;2.90;;;;;;;17.80;76.41;100676.91;5030939;28;20033;-87
2023/06/11 02:35:00;;;;;;;7.18;2.78;;;;;;;17.79;76.12;100672.59;5032921;28;20029;-87
2023/06/11 02:37:25;;;;;;;3.63;2.70;;;;;;;17.68;76.71;100664.72;5049069;28;20036;-86
2023/06/11 02:39:51;;;;;;;5.43;2.78;;;;;;;17.65;76.69;100660.59;5032091;28;20514;-86
2023/06/11 02:42:16;;;;;;;5.45;2.83;;;;;;;17.59;76.97;100665.44;5049107;28;20038;-86
2023/06/11 02:44:42;;;;;;;4.20;2.97;;;;;;;17.55;77.36;100671.88;5015702;28;20030;-87
2023/06/11 02:47:07;;;;;;;3.63;2.50;;;;;;;17.47;77.94;100675.09;5032682;28;20037;-87
2023/06/11 02:49:34;;;;;;;6.03;2.75;;;;;;;17.51;77.92;100670.47;5015739;28;20029;-86
2023/06/11 02:51:59;;;;;;;6.20;3.05;;;;;;;17.66;77.82;100671.88;5032284;28;20127;-87
2023/06/11 02:54:25;;;;;;;6.07;2.50;;;;;;;17.58;77.79;100666.41;5015299;28;20475;-87
2023/06/11 02:56:50;;;;;;;3.83;2.72;;;;;;;17.44;78.07;100660.47;5031814;28;20475;-87
2023/06/11 02:59:15;;;;;;;4.95;2.65;;;;;;;17.49;78.00;100663.53;5015521;28;20025;-86
2023/06/11 03:01:41;;;;;;;5.22;3.10;;;;;;;17.49;78.17;100674.00;5032050;28;20411;-87
2023/06/11 03:04:06;;;;;;;7.45;2.88;;;;;;;17.39;78.43;100666.97;5032043;28;20048;-88
2023/06/11 03:06:32;;;;;;;7.80;2.70;;;;;;;17.44;78.15;100664.88;5048458;28;20037;-86
2023/06/11 03:08:58;;;;;;;6.18;3.10;;;;;;;17.43;78.29;100666.66;5031577;28;20029;-87
2023/06/11 03:11:23;;;;;;;4.82;2.72;;;;;;;17.54;77.97;100675.44;5031651;28;20053;-87
2023/06/11 03:13:49;;;;;;;7.40;2.92;;;;;;;17.46;78.07;100666.41;5031876;28;20025;-87
2023/06/11 03:16:14;;;;;;;4.22;2.92;;;;;;;17.51;78.75;100680.94;5032068;28;20033;-86
2023/06/11 03:18:42;;;;;;;4.70;3.05;;;;;;;17.61;78.32;100687.13;5031651;28;20032;-87
2023/06/11 03:21:07;;;;;;;6.13;3.60;;;;;;;17.58;78.18;100680.31;5031378;28;20033;-87
2023/06/11 03:23:33;;;;;;;9.77;2.92;;;;;;;17.75;78.57;100694.75;5014696;28;20071;-86
2023/06/11 03:25:59;;;;;;;3.80;2.72;;;;;;;17.64;79.27;100692.94;5015085;28;20033;-86
2023/06/11 03:28:26;;;;;;;4.32;2.97;;;;;;;17.59;79.13;100683.75;5031242;28;20029;-87
2023/06/11 03:30:51;;;;;;;6.18;2.80;;;;;;;17.65;79.71;100699.00;5031832;28;20025;-87
2023/06/11 03:33:17;;;;;;;5.78;2.83;;;;;;;17.70;79.49;100696.91;5031076;28;20507;-87
2023/06/11 03:35:42;;;;;;;4.35;3.15;;;;;;;17.75;79.67;100698.19;5048046;28;20034;-88
2023/06/11 03:38:08;;;;;;;6.05;3.45;;;;;;;17.78;80.07;100690.09;5030735;28;20572;-87
2023/06/11 03:40:33;;;;;;;3.80;2.60;;;;;;;17.82;79.85;100702.97;5031179;28;20037;-87
2023/06/11 03:42:59;;;;;;;12.65;3.42;;;;;;;17.81;79.85;100689.03;5032060;28;20030;-86
2023/06/11 03:45:25;;;;;;;6.50;2.90;;;;;;;17.82;80.49;100693.31;5031217;28;20029;-87
2023/06/11 03:47:52;;;;;;;5.85;3.03;;;;;;;17.91;80.82;100699.63;5030837;28;20457;-88
2023/06/11 03:50:18;;;;;;;4.30;3.00;;;;;;;17.86;80.82;100686.06;5031160;28;20044;-87
2023/06/11 03:52:44;;;;;;;3.97;3.05;;;;;;;18.03;80.55;100699.47;5047338;28;20052;-87
2023/06/11 03:55:10;;;;;;;4.88;3.25;;;;;;;18.08;80.47;100698.28;5030957;28;20036;-87
2023/06/11 03:57:35;;;;;;;4.10;3.03;;;;;;;18.10;79.81;100704.25;5031001;28;20040;-86
2023/06/11 04:00:01;;;;;;;4.47;3.03;;;;;;;18.07;78.77;100697.44;5014420;28;20029;-86
2023/06/11 04:02:27;;;;;;;6.53;3.00;;;;;;;18.12;78.62;100686.63;5014393;28;20434;-87
2023/06/11 04:04:53;;;;;;;9.43;3.78;;;;;;;18.23;78.56;100711.00;5030821;28;20487;-87
2023/06/11 04:07:18;;;;;;;5.45;3.47;;;;;;;18.23;78.66;100705.75;5030266;28;20029;-87
2023/06/11 04:09:43;;;;;;;6.53;3.25;;;;;;;18.23;77.99;100689.22;5031698;28;20487;-87
2023/06/11 04:12:09;;;;;;;5.28;3.33;;;;;;;18.31;77.90;100697.31;5030595;28;20092;-87
2023/06/11 04:14:35;;;;;;;8.07;3.88;;;;;;;18.36;77.05;100700.38;5031880;28;20034;-87
2023/06/11 04:17:00;;;;;;;7.20;3.63;;;;;;;18.40;76.49;100699.19;5047130;28;20033;-86
2023/06/11 04:19:26;;;;;;;4.18;3.03;;;;;;;18.41;76.31;100703.47;5031779;28;20045;-87
2023/06/11 04:21:51;;;;;;;3.90;3.13;;;;;;;18.44;76.32;100713.69;5046477;28;20034;-87
2023/06/11 04:24:17;;;;;;;6.53;3.20;;;;;;;18.44;76.33;100718.09;5030453;28;20029;-87
2023/06/11 04:26:43;;;;;;;6.22;4.07;;;;;;;18.45;76.11;100710.09;5030427;28;20479;-87
2023/06/11 04:29:08;;;;;;;4.93;2.90;;;;;;;18.59;76.09;100715.06;5030149;28;20035;-87
2023/06/11 04:31:34;;;;;;;5.35;3.53;;;;;;;18.59;75.78;100717.69;5030108;28;20033;-88
2023/06/11 04:34:06;;;;;;;9.07;3.50;;;;;;;18.65;74.85;100710.31;5030336;28;20139;-87
2023/06/11 04:36:32;;;;;;;;;;;;;;;18.68;74.43;100720.53;5030508;28;20471;-87
2023/06/11 04:39:04;;;;;;;9.13;3.55;;;;;;;18.44;74.55;100695.34;5030128;28;19913;-87
2023/06/11 04:41:31;;;;;;;;;;;;;;;18.52;75.21;100715.69;5031012;28;20044;-87
2023/06/11 04:44:00;;;;;;;4.10;3.05;;;;;;;18.58;75.27;100718.66;5031262;28;19913;-87
2023/06/11 04:46:26;;;;;;;8.93;3.83;;;;;;;18.47;75.20;100702.94;5030086;28;20030;-86
2023/06/11 04:48:53;;;;;;;5.40;3.60;;;;;;;18.63;75.31;100713.84;5046804;28;20471;-86
2023/06/11 04:51:20;;;;;;;5.53;3.60;;;;;;;18.70;75.13;100708.16;5030080;28;20036;-87
2023/06/11 04:53:45;;;;;;;8.65;3.80;;;;;;;18.59;74.24;100691.50;5013522;28;20025;-87
2023/06/11 04:56:11;;;;;;;9.02;4.40;;;;;;;18.76;74.49;100712.88;5012972;28;20376;-87
2023/06/11 04:58:36;;;;;;;5.90;3.90;;;;;;;18.77;74.23;100709.31;5029841;28;20041;-87
2023/06/11 05:01:05;;;;;;;12.38;4.18;;;;;;;18.75;73.65;100700.75;5030803;28;20079;-86
2023/06/11 05:03:36;;;;;;;7.78;3.63;;;;;;;18.83;73.88;100698.31;5030044;28;20557;-86
2023/06/11 05:06:03;;;;;;;7.25;3.53;;;;;;;19.04;73.38;100701.78;5045305;28;20123;-87
2023/06/11 05:08:28;;;;;;;4.93;3.58;;;;;;;19.16;73.79;100707.78;5029771;28;20091;-87
2023/06/11 05:10:57;;;;;;;5.55;3.60;;;;;;;19.22;73.03;100699.44;5045917;28;20053;-87
2023/06/11 05:13:25;;;;;;;6.38;3.70;;;;;;;19.22;72.96;100694.19;5029444;28;20388;-88
2023/06/11 05:15:55;;;;;;;4.97;3.70;;;;;;;19.25;72.25;100686.03;5029439;28;20415;-87
2023/06/11 05:18:21;;;;;;;5.40;3.80;;;;;;;19.28;72.39;100683.19;5029661;28;20018;-87
2023/06/11 05:20:50;;;;;;;4.15;3.38;;;;;;;19.39;72.21;100695.41;5029297;28;20076;-87
2023/06/11 05:23:16;;;;;;;5.85;3.95;;;;;;;19.52;72.61;100696.00;5029442;28;20032;-88
2023/06/11 05:25:50;;;;;;;5.65;3.67;;;;;;;19.61;71.91;100702.28;5029350;28;20029;-88
2023/06/11 05:28:16;;;;;;;5.63;3.97;;;;;;;19.74;72.17;100706.34;5029388;28;20072;-87
2023/06/11 05:30:43;;;;;;;6.55;4.03;;;;;;;19.73;71.38;100694.19;5029211;28;20025;-87
2023/06/11 05:33:09;;;;;;;4.97;3.67;;;;;;;19.90;71.21;100705.03;5012824;28;20071;-87
2023/06/11 05:35:34;;;;;;;6.38;4.00;;;;;;;20.00;71.40;100692.78;5029150;28;20037;-87
2023/06/11 05:38:03;;;;;;;5.22;3.58;;;;;;;20.11;71.15;100700.53;5029402;28;20494;-87
2023/06/11 05:40:29;;;;;;;5.88;3.88;;;;;;;20.17;70.94;100692.13;5045710;28;20399;-88
2023/06/11 05:42:55;;;;;;;5.53;3.83;;;;;;;20.27;70.97;100703.47;5029078;28;20025;-87
2023/06/11 05:45:20;;;;;;;8.40;4.35;;;;;;;20.31;70.55;100696.97;5029095;28;20079;-87
2023/06/11 05:47:46;;;;;;;6.05;3.47;;;;;;;20.36;70.59;100701.84;5045227;28;20032;-87
2023/06/11 05:50:11;;;;;;;4.72;3.75;;;;;;;20.49;70.52;100712.13;5045633;28;20033;-88
2023/06/11 05:52:37;;;;;;;5.18;3.63;;;;;;;20.53;70.35;100701.19;5046067;28;20514;-87
2023/06/11 05:55:03;;;;;;;6.78;3.65;;;;;;;20.53;69.99;100682.78;5029020;28;20021;-87
2023/06/11 05:57:29;;;;;;;5.60;3.78;;;;;;;20.73;69.63;100704.66;5029007;28;20040;-88
2023/06/11 05:59:54;;;;;;;5.22;3.80;;;;;;;20.75;69.91;100692.22;5046018;28;20034;-87
2023/06/11 06:02:21;;;;;;;6.85;3.90;;;;;;;20.84;69.35;100685.25;5029806;28;20030;-87
2023/06/11 06:04:47;;;;;;;7.18;3.75;;;;;;;20.97;69.17;100692.88;5012529;28;20036;-87
2023/06/11 06:07:13;;;;;;;7.65;3.95;;;;;;;21.06;69.16;100705.19;5015927;28;20033;-87
2023/06/11 06:09:39;;;;;;;4.93;3.83;;;;;;;21.17;69.51;100699.78;5033924;28;20029;-87
2023/06/11 06:12:05;;;;;;;5.65;3.95;;;;;;;21.23;69.17;100696.56;5032828;28;20499;-87
2023/06/11 06:14:31;;;;;;;11.38;3.75;;;;;;;21.19;68.96;100690.75;5032878;28;20079;-87
2023/06/11 06:16:57;;;;;;;8.50;3.97;;;;;;;21.35;68.13;100695.47;5032508;28;20120;-87
2023/06/11 06:19:22;;;;;;;5.90;4.03;;;;;;;21.34;67.44;100688.56;5032599;28;20029;-87
2023/06/11 06:21:47;;;;;;;4.95;3.80;;;;;;;21.47;67.73;100691.69;5032696;28;20033;-87
2023/06/11 06:24:13;;;;;;;5.95;3.65;;;;;;;21.53;67.21;100692.91;5016161;28;20037;-88
2023/06/11 06:26:40;;;;;;;6.60;3.40;;;;;;;21.83;67.64;100707.63;5032422;28;20486;-87
2023/06/11 06:29:09;;;;;;;4.90;3.60;;;;;;;21.79;67.12;100698.34;5049120;28;20018;-87
2023/06/11 06:31:36;;;;;;;12.35;4.30;;;;;;;21.94;67.30;100696.91;5032373;28;20025;-86
2023/06/11 06:34:02;;;;;;;5.28;3.85;;;;;;;22.10;66.68;100703.34;5032203;28;20029;-87
2023/06/11 06:36:28;;;;;;;9.23;4.15;;;;;;;22.09;65.50;100709.59;5032421;28;20083;-87
2023/06/11 06:38:53;;;;;;;4.60;3.75;;;;;;;22.13;64.44;100710.97;5032297;28;20036;-87
2023/06/11 06:41:19;;;;;;;14.93;4.20;;;;;;;22.24;64.45;100703.69;5032318;28;20034;-87
2023/06/11 06:43:44;;;;;;;5.35;3.80;;;;;;;22.35;65.76;100689.47;5032294;28;20030;-88
2023/06/11 06:46:10;;;;;;;5.90;3.60;;;;;;;22.58;64.64;100697.75;5031900;28;20407;-87
2023/06/11 06:48:35;;;;;;;5.13;3.42;;;;;;;22.64;63.87;100698.97;5048823;28;20075;-87
2023/06/11 06:51:01;;;;;;;7.13;3.70;;;;;;;22.75;63.83;100704.00;5032117;28;20414;-87
2023/06/11 06:53:26;;;;;;;6.78;3.67;;;;;;;22.81;62.96;100700.75;5048754;28;20036;-87
2023/06/11 06:55:52;;;;;;;4.32;3.30;;;;;;;23.03;62.48;100705.59;5015663;28;20029;-88
2023/06/11 06:58:17;;;;;;;5.68;3.58;;;;;;;23.12;62.19;100694.13;5032101;28;20025;-88
2023/06/11 07:00:45;;;;;;;4.72;3.35;;;;;;;23.17;61.52;100699.75;5031553;28;20033;-87
2023/06/11 07:03:12;;;;;;;5.45;3.60;;;;;;;23.16;60.69;100699.91;5031924;28;20224;-87
2023/06/11 07:05:37;;;;;;;6.35;4.03;;;;;;;23.35;60.62;100696.22;5031723;28;20031;-87
2023/06/11 07:08:03;;;;;;;5.05;3.78;;;;;;;23.48;61.94;100694.81;5048445;28;20033;-87
2023/06/11 07:10:30;;;;;;;6.22;4.43;;;;;;;23.52;62.66;100690.06;5031720;28;20112;-88
2023/06/11 07:12:55;;;;;;;5.63;4.07;;;;;;;23.66;63.22;100702.69;5032782;28;20414;-87
2023/06/11 07:15:21;;;;;;;5.32;3.67;;;;;;;23.81;61.13;100700.31;5032644;28;20476;-88
2023/06/11 07:17:46;;;;;;;5.80;3.80;;;;;;;23.77;60.87;100703.41;5031060;28;20381;-87
2023/06/11 07:20:12;;;;;;;4.90;3.58;;;;;;;23.82;60.81;100695.84;5031677;28;20041;-87
2023/06/11 07:22:37;;;;;;;8.18;4.00;;;;;;;23.86;60.97;100673.41;5048174;28;20388;-88
2023/06/11 07:25:03;;;;;;;6.10;3.85;;;;;;;24.13;60.44;100686.38;5048215;28;20084;-88
2023/06/11 07:27:28;;;;;;;5.70;3.78;;;;;;;24.31;59.70;100697.69;5047933;28;20033;-87
2023/06/11 07:29:54;;;;;;;5.10;3.83;;;;;;;24.33;59.10;100689.59;5014711;28;20025;-88
2023/06/11 07:32:19;;;;;;;5.82;4.30;;;;;;;24.47;58.47;100699.50;5031350;28;20479;-88
2023/06/11 07:34:45;;;;;;;7.70;4.05;;;;;;;24.37;58.29;100675.03;5014884;28;20079;-87
2023/06/11 07:37:10;;;;;;;5.63;3.80;;;;;;;24.60;59.00;100685.81;5031137;28;20418;-88
2023/06/11 07:39:36;;;;;;;4.47;3.25;;;;;;;24.76;58.01;100687.63;5014743;28;20045;-87
2023/06/11 07:42:03;;;;;;;5.28;3.80;;;;;;;24.82;57.03;100679.03;5030960;28;20025;-88
2023/06/11 07:44:28;;;;;;;5.88;3.33;;;;;;;24.92;56.77;100690.28;5030981;28;20135;-87
2023/06/11 07:46:54;;;;;;;5.70;3.60;;;;;;;24.82;56.42;100674.56;5030737;28;20044;-88
2023/06/11 07:49:19;;;;;;;4.65;3.65;;;;;;;24.84;55.91;100677.03;5030887;28;20033;-88
2023/06/11 07:51:46;;;;;;;4.60;3.50;;;;;;;24.77;56.15;100661.00;5032076;28;20036;-87
2023/06/11 07:54:11;;;;;;;4.90;3.80;;;;;;;24.99;56.55;100674.56;5047638;28;20052;-87
2023/06/11 07:56:37;;;;;;;6.57;3.33;;;;;;;25.07;56.14;100677.22;5031250;28;20104;-88
2023/06/11 07:59:02;;;;;;;5.35;3.35;;;;;;;25.14;56.03;100673.72;5030715;28;20036;-88
2023/06/11 08:01:28;;;;;;;7.13;3.13;;;;;;;25.27;55.15;100673.22;5014358;28;20483;-87
2023/06/11 08:03:53;;;;;;;7.60;3.72;;;;;;;25.46;55.79;100674.63;5030539;28;20025;-87
2023/06/11 08:06:20;;;;;;;3.95;3.15;;;;;;;25.68;55.63;100681.03;5031011;28;20075;-88
2023/06/11 08:08:47;;;;;;;5.18;3.63;;;;;;;25.65;53.78;100673.41;5046965;28;20489;-87
2023/06/11 08:11:13;;;;;;;4.47;3.25;;;;;;;25.63;54.06;100672.75;5030583;28;20060;-88
2023/06/11 08:13:40;;;;;;;4.25;3.25;;;;;;;25.74;53.70;100680.38;5013853;28;20030;-87
2023/06/11 08:16:07;;;;;;;5.47;3.78;;;;;;;25.63;53.35;100672.75;5030502;28;20490;-88
2023/06/11 08:18:32;;;;;;;6.10;3.60;;;;;;;25.82;53.86;100667.09;5030602;28;20037;-88
2023/06/11 08:20:58;;;;;;;5.40;3.10;;;;;;;26.04;53.03;100678.72;5030638;28;20033;-88
2023/06/11 08:23:24;;;;;;;5.40;3.40;;;;;;;26.09;52.54;100672.91;5030416;28;20145;-87
2023/06/11 08:25:50;;;;;;;4.43;3.50;;;;;;;26.16;52.17;100679.19;5030488;28;20530;-89
2023/06/11 08:28:15;;;;;;;4.82;3.42;;;;;;;26.39;51.79;100676.56;5029841;28;20416;-89
2023/06/11 08:30:41;;;;;;;6.93;3.58;;;;;;;26.21;51.52;100645.00;5029635;28;20030;-87
2023/06/11 08:33:06;;;;;;;5.10;3.58;;;;;;;26.53;50.90;100671.31;5030364;28;20033;-89
2023/06/11 08:35:32;;;;;;;4.93;3.47;;;;;;;26.71;50.43;100680.78;5030224;28;20423;-88
2023/06/11 08:37:57;;;;;;;4.30;3.40;;;;;;;26.67;49.46;100652.97;5030017;28;20029;-88
2023/06/11 08:40:22;;;;;;;4.38;3.25;;;;;;;26.80;49.39;100661.16;5029987;28;20025;-89
2023/06/11 08:42:49;;;;;;;5.30;3.65;;;;;;;26.95;49.60;100666.50;5029832;28;20036;-87
2023/06/11 08:45:14;;;;;;;4.38;3.00;;;;;;;27.01;49.49;100649.81;5030126;28;20056;-88
2023/06/11 08:47:40;;;;;;;4.47;3.67;;;;;;;27.26;47.48;100661.88;5031004;28;20452;-88
2023/06/11 08:50:06;;;;;;;5.30;3.30;;;;;;;27.31;48.20;100653.34;5029833;28;20033;-88
2023/06/11 08:52:32;;;;;;;4.57;3.15;;;;;;;27.52;48.24;100666.72;5013422;28;20021;-88
2023/06/11 08:54:59;;;;;;;6.97;3.50;;;;;;;27.66;48.01;100662.44;5029775;28;20059;-89
2023/06/11 08:57:25;;;;;;;4.65;3.60;;;;;;;27.92;47.15;100665.41;5031023;28;20116;-88
2023/06/11 08:59:50;;;;;;;5.60;3.40;;;;;;;28.01;45.94;100655.47;5030014;28;20105;-88
2023/06/11 09:02:16;;;;;;;5.80;3.65;;;;;;;28.19;45.30;100658.53;5046325;28;20515;-87
2023/06/11 09:04:43;;;;;;;4.70;3.40;;;;;;;28.25;45.18;100656.97;5013313;28;20026;-88
2023/06/11 09:07:09;;;;;;;3.60;2.85;;;;;;;28.29;43.24;100658.25;5029778;28;20067;-88
2023/06/11 09:09:34;;;;;;;4.20;3.35;;;;;;;28.32;43.88;100652.59;5029757;28;20034;-88
2023/06/11 09:12:05;;;;;;;3.75;3.22;;;;;;;28.26;42.75;100647.97;5029194;28;20403;-88
2023/06/11 09:14:31;;;;;;;3.47;3.00;;;;;;;28.22;43.23;100655.53;5029988;28;20030;-88
2023/06/11 09:16:56;;;;;;;7.15;4.13;;;;;;;28.09;44.07;100639.41;5029657;28;20343;-88
2023/06/11 09:19:22;;;;;;;3.88;3.15;;;;;;;28.25;44.05;100657.81;5030830;28;20030;-88
2023/06/11 09:21:55;;;;;;;4.68;3.53;;;;;;;28.36;44.20;100647.69;5029169;28;20068;-88
2023/06/11 09:24:20;;;;;;;3.85;3.10;;;;;;;28.41;43.48;100650.59;5029537;28;20080;-88
2023/06/11 09:26:53;;;;;;;4.90;3.20;;;;;;;28.44;43.04;100643.06;5029002;28;20021;-87
2023/06/11 09:29:23;;;;;;;3.90;3.25;;;;;;;28.55;43.21;100649.72;5046065;28;20022;-88
2023/06/11 09:31:49;;;;;;;4.15;3.17;;;;;;;28.57;43.43;100645.03;5029441;28;20033;-87
2023/06/11 09:34:22;;;;;;;4.50;3.33;;;;;;;28.65;43.42;100644.06;5029513;28;20025;-88
2023/06/11 09:36:47;;;;;;;3.63;3.22;;;;;;;28.67;42.08;100618.91;5029241;28;20022;-88
2023/06/11 09:39:15;;;;;;;3.90;3.20;;;;;;;28.84;42.49;100641.56;5029130;28;20040;-88
2023/06/11 09:41:51;;;;;;;4.05;3.17;;;;;;;29.16;42.31;100646.50;5031903;28;20025;-88
2023/06/11 09:44:19;;;;;;;3.50;2.88;;;;;;;29.38;40.71;100627.56;5033539;28;20120;-88
2023/06/11 09:46:46;;;;;;;4.22;3.17;;;;;;;29.69;39.12;100637.78;5033236;28;20025;-88
2023/06/11 09:49:15;;;;;;;3.50;2.83;;;;;;;29.82;39.07;100636.19;5033379;28;20021;-88
2023/06/11 09:51:41;;;;;;;3.67;3.10;;;;;;;29.89;39.37;100634.34;5033387;28;20033;-87
2023/06/11 09:54:09;;;;;;;3.75;3.30;;;;;;;29.82;39.40;100645.00;5032991;28;20036;-88
2023/06/11 09:56:35;;;;;;;3.97;2.95;;;;;;;29.68;39.90;100632.63;5033349;28;20095;-88
2023/06/11 09:59:01;;;;;;;3.28;2.90;;;;;;;29.75;40.05;100633.47;5033264;28;20067;-89
2023/06/11 10:01:29;;;;;;;3.53;2.90;;;;;;;29.71;40.22;100632.25;5033433;28;20060;-88
2023/06/11 10:03:55;;;;;;;3.42;2.67;;;;;;;29.73;41.45;100627.53;5049562;28;20411;-88
2023/06/11 10:06:24;;;;;;;3.85;2.97;;;;;;;29.55;41.41;100605.94;5032895;28;20112;-88
2023/06/11 10:08:50;;;;;;;3.85;2.80;;;;;;;29.51;40.50;100616.19;5032623;28;20031;-88
2023/06/11 10:11:17;;;;;;;5.50;3.08;;;;;;;29.64;39.91;100626.88;5032751;28;20045;-88
2023/06/11 10:13:43;;;;;;;4.43;3.10;;;;;;;29.51;39.99;100626.84;5032821;28;20029;-89
2023/06/11 10:16:08;;;;;;;4.47;3.20;;;;;;;29.49;40.59;100622.72;5032539;28;20513;-88
2023/06/11 10:18:34;;;;;;;3.53;2.88;;;;;;;29.40;40.31;100614.88;5016341;28;20044;-89
2023/06/11 10:21:03;;;;;;;3.85;3.03;;;;;;;29.36;38.62;100610.94;5032840;28;20025;-89
2023/06/11 10:23:39;;;;;;;4.43;3.20;;;;;;;29.49;38.53;100622.72;5032536;28;20026;-88
2023/06/11 10:26:05;;;;;;;6.75;3.00;;;;;;;29.45;38.20;100613.44;5016229;28;20081;-88
2023/06/11 10:28:37;;;;;;;6.53;2.92;;;;;;;29.63;36.58;100614.59;5032490;28;20495;-88
2023/06/11 10:31:04;;;;;;;3.25;2.55;;;;;;;29.62;35.51;100599.63;5032422;28;20084;-89
2023/06/11 10:33:43;;;;;;;3.38;2.50;;;;;;;29.84;34.33;100602.94;5032643;28;20022;-88
2023/06/11 10:36:09;;;;;;;3.30;2.55;;;;;;;29.86;35.22;100600.06;5032486;28;20032;-88
2023/06/11 10:38:38;;;;;;;2.90;2.35;;;;;;;30.05;34.38;100596.63;5032182;28;20030;-90
2023/06/11 10:41:03;;;;;;;3.10;2.58;;;;;;;30.18;34.84;100591.34;5032212;28;20152;-88
2023/06/11 10:43:29;;;;;;;3.88;2.50;;;;;;;30.33;34.79;100598.34;5032371;28;20195;-89
2023/06/11 10:46:02;;;;;;;3.40;2.78;;;;;;;30.42;34.38;100576.56;5032355;28;20029;-88
2023/06/11 10:48:28;;;;;;;4.15;2.70;;;;;;;30.48;34.00;100580.25;5048785;28;20021;-89
2023/06/11 10:51:03;;;;;;;3.28;2.83;;;;;;;30.51;33.85;100583.34;5049056;28;20438;-88
2023/06/11 10:53:36;;;;;;;4.32;2.80;;;;;;;30.47;34.33;100576.75;5030591;28;20024;-88
2023/06/11 10:56:01;;;;;;;3.15;2.63;;;;;;;30.73;34.75;100583.13;5048979;28;20064;-88
2023/06/11 10:58:29;;;;;;;4.18;2.95;;;;;;;30.82;34.08;100584.56;5032080;28;20025;-88
2023/06/11 11:00:54;;;;;;;3.22;2.60;;;;;;;30.64;34.23;100554.97;5032164;28;20479;-88
2023/06/11 11:03:26;;;;;;;4.20;2.75;;;;;;;30.72;34.44;100555.63;5031999;28;20032;-89
2023/06/11 11:05:52;;;;;;;6.40;2.90;;;;;;;30.93;33.25;100561.72;5032604;28;20040;-88
2023/06/11 11:08:18;;;;;;;3.08;2.30;;;;;;;31.16;32.19;100555.91;5031663;28;20065;-88
2023/06/11 11:10:44;;;;;;;3.60;2.45;;;;;;;31.32;32.63;100547.44;5015135;28;20108;-89
2023/06/11 11:13:09;;;;;;;3.50;2.50;;;;;;;31.37;32.42;100537.75;5032142;28;20445;-88
2023/06/11 11:15:34;;;;;;;2.97;2.67;;;;;;;31.46;33.15;100540.16;5031770;28;20025;-88
2023/06/11 11:18:00;;;;;;;3.30;2.58;;;;;;;31.55;31.52;100552.25;5031829;28;20025;-88
2023/06/11 11:20:25;;;;;;;4.90;2.65;;;;;;;31.64;32.59;100551.78;5015024;28;20087;-89
2023/06/11 11:22:52;;;;;;;3.00;2.33;;;;;;;31.80;32.32;100558.53;5031151;28;20083;-89